createdAt,value
2018-10-09T00:01:37.973Z,10.10
2018-10-09T00:04:12.605Z,10.00
2018-10-09T00:06:47.154Z,9.90
2018-10-09T00:09:21.887Z,9.90
2018-10-09T00:11:56.848Z,9.80
2018-10-09T00:14:31.346Z,9.80
2018-10-09T00:17:06.192Z,9.80
2018-10-09T00:19:40.679Z,9.80
2018-10-09T00:22:15.314Z,9.90
2018-10-09T00:24:49.839Z,9.90
2018-10-09T00:27:24.496Z,10.00
2018-10-09T00:29:59.072Z,10.00
2018-10-09T00:32:33.944Z,10.00
2018-10-09T00:35:08.438Z,10.10
2018-10-09T00:37:43.398Z,10.30
2018-10-09T00:40:18.186Z,10.20
2018-10-09T00:42:53.018Z,10.30
2018-10-09T00:45:27.526Z,10.30
2018-10-09T00:48:02.294Z,10.20
2018-10-09T00:50:36.779Z,10.10
2018-10-09T00:53:11.314Z,10.00
2018-10-09T00:55:45.962Z,10.10
2018-10-09T00:58:20.550Z,10.10
2018-10-09T01:00:55.186Z,10.10
2018-10-09T01:03:29.802Z,10.10
2018-10-09T01:06:04.367Z,10.10
2018-10-09T01:08:38.875Z,10.20
2018-10-09T01:11:13.479Z,10.20
2018-10-09T01:13:48.202Z,10.30
2018-10-09T01:16:23.068Z,10.20
2018-10-09T01:18:57.691Z,10.30
2018-10-09T01:21:32.354Z,10.20
2018-10-09T01:24:06.920Z,10.00
2018-10-09T01:26:41.640Z,9.90
2018-10-09T01:29:16.347Z,9.70
2018-10-09T01:31:50.965Z,9.60
2018-10-09T01:34:25.635Z,9.60
2018-10-09T01:37:00.309Z,9.50
2018-10-09T01:39:34.998Z,9.50
2018-10-09T01:42:09.578Z,9.50
2018-10-09T01:44:44.342Z,9.60
2018-10-09T01:47:18.799Z,9.60
2018-10-09T01:49:53.565Z,9.80
2018-10-09T01:52:28.254Z,9.90
2018-10-09T01:55:02.834Z,9.90
2018-10-09T01:57:37.515Z,10.00
2018-10-09T02:00:12.227Z,10.00
2018-10-09T02:02:47.055Z,10.10
2018-10-09T02:05:21.656Z,10.10
2018-10-09T02:07:56.253Z,10.00
2018-10-09T02:10:30.928Z,10.00
2018-10-09T02:13:06.083Z,10.00
2018-10-09T02:15:40.638Z,9.80
2018-10-09T02:18:15.123Z,9.80
2018-10-09T02:23:47.594Z,9.70
2018-10-09T02:26:22.756Z,9.90
2018-10-09T02:28:57.988Z,9.80
2018-10-09T02:31:33.079Z,9.60
2018-10-09T02:34:07.928Z,9.70
2018-10-09T02:36:42.971Z,9.60
2018-10-09T02:39:17.977Z,9.60
2018-10-09T02:41:53.349Z,9.80
2018-10-09T02:44:28.645Z,9.70
2018-10-09T02:47:03.680Z,9.80
2018-10-09T02:49:38.629Z,9.70
2018-10-09T02:52:13.547Z,9.60
2018-10-09T02:54:49.024Z,9.40
2018-10-09T02:57:24.271Z,9.30
2018-10-09T02:59:59.374Z,9.20
2018-10-09T03:02:34.291Z,9.10
2018-10-09T03:05:09.691Z,9.20
2018-10-09T03:07:44.659Z,9.00
2018-10-09T03:10:20.066Z,8.90
2018-10-09T03:12:55.055Z,8.90
2018-10-09T03:15:30.205Z,8.80
2018-10-09T03:18:05.435Z,9.00
2018-10-09T03:20:40.402Z,9.30
2018-10-09T03:23:15.238Z,9.50
2018-10-09T03:25:50.124Z,9.60
2018-10-09T03:28:25.135Z,9.60
2018-10-09T03:31:00.166Z,9.50
2018-10-09T03:33:35.184Z,9.40
2018-10-09T03:36:10.073Z,9.30
2018-10-09T03:38:45.046Z,9.20
2018-10-09T03:41:20.071Z,9.10
2018-10-09T03:43:54.874Z,9.00
2018-10-09T03:46:29.872Z,8.90
2018-10-09T03:49:04.780Z,9.00
2018-10-09T03:51:39.680Z,9.20
2018-10-09T03:54:14.738Z,9.00
2018-10-09T03:56:49.722Z,8.80
2018-10-09T03:59:24.720Z,8.70
2018-10-09T04:01:59.813Z,8.50
2018-10-09T04:04:34.896Z,8.40
2018-10-09T04:07:09.909Z,8.30
2018-10-09T04:09:44.904Z,8.30
2018-10-09T04:12:19.815Z,8.20
2018-10-09T04:14:54.772Z,8.20
2018-10-09T04:17:29.922Z,8.10
2018-10-09T04:20:05.791Z,8.10
2018-10-09T04:22:40.643Z,8.00
2018-10-09T04:25:15.485Z,8.20
2018-10-09T04:27:50.411Z,8.10
2018-10-09T04:30:25.577Z,8.00
2018-10-09T04:33:00.626Z,8.00
2018-10-09T04:35:35.814Z,7.90
2018-10-09T04:38:10.934Z,7.90
2018-10-09T04:40:39.965Z,8.00
2018-10-09T04:43:09.117Z,8.00
2018-10-09T04:45:38.259Z,8.00
2018-10-09T04:48:07.624Z,8.00
2018-10-09T04:50:36.695Z,8.10
2018-10-09T04:53:05.787Z,8.40
2018-10-09T04:55:34.791Z,8.60
2018-10-09T04:58:03.826Z,8.50
2018-10-09T05:00:32.899Z,8.50
2018-10-09T05:03:01.939Z,8.50
2018-10-09T05:05:30.998Z,8.50
2018-10-09T05:08:00.044Z,8.70
2018-10-09T05:10:29.117Z,8.70
2018-10-09T05:12:58.190Z,8.50
2018-10-09T05:15:27.287Z,8.30
2018-10-09T05:17:56.332Z,8.20
2018-10-09T05:20:25.402Z,8.40
2018-10-09T05:22:54.455Z,8.50
2018-10-09T05:25:45.955Z,8.70
2018-10-09T05:28:15.019Z,8.50
2018-10-09T05:30:44.096Z,8.60
2018-10-09T05:33:13.137Z,8.60
2018-10-09T05:35:42.189Z,8.60
2018-10-09T05:38:11.470Z,8.60
2018-10-09T05:40:40.544Z,8.50
2018-10-09T05:43:09.607Z,9.10
2018-10-09T05:45:39.200Z,9.10
2018-10-09T05:48:09.544Z,9.00
2018-10-09T05:50:38.695Z,8.80
2018-10-09T05:53:07.747Z,8.60
2018-10-09T05:55:37.269Z,8.40
2018-10-09T05:58:06.613Z,8.50
2018-10-09T06:00:35.607Z,8.70
2018-10-09T06:03:04.664Z,8.80
2018-10-09T06:05:33.732Z,8.90
2018-10-09T06:08:02.774Z,8.90
2018-10-09T06:10:31.896Z,8.80
2018-10-09T06:13:01.053Z,8.80
2018-10-09T06:15:30.217Z,8.80
2018-10-09T06:17:59.263Z,9.00
2018-10-09T06:20:28.287Z,8.90
2018-10-09T06:22:57.325Z,9.00
2018-10-09T06:25:26.428Z,9.00
2018-10-09T06:27:55.525Z,9.00
2018-10-09T06:30:24.823Z,9.00
2018-10-09T06:32:53.892Z,9.20
2018-10-09T06:35:22.943Z,9.40
2018-10-09T06:37:52.223Z,9.40
2018-10-09T06:40:21.343Z,9.40
2018-10-09T06:42:51.046Z,9.40
2018-10-09T06:45:20.076Z,9.40
2018-10-09T06:47:49.192Z,9.50
2018-10-09T06:50:18.136Z,9.60
2018-10-09T06:52:47.207Z,9.70
2018-10-09T06:55:16.280Z,9.80
2018-10-09T06:57:45.364Z,9.80
2018-10-09T07:00:14.647Z,9.80
2018-10-09T07:02:43.700Z,9.80
2018-10-09T07:05:12.816Z,10.00
2018-10-09T07:07:41.999Z,10.10
2018-10-09T07:10:11.075Z,10.10
2018-10-09T07:12:40.132Z,10.10
2018-10-09T07:15:09.398Z,10.30
2018-10-09T07:17:38.456Z,10.50
2018-10-09T07:20:07.576Z,10.60
2018-10-09T07:22:36.592Z,10.80
2018-10-09T07:25:05.871Z,11.00
2018-10-09T07:27:34.918Z,11.10
2018-10-09T07:30:04.443Z,11.20
2018-10-09T07:32:33.527Z,11.40
2018-10-09T07:35:02.684Z,11.50
2018-10-09T07:37:31.811Z,11.70
2018-10-09T07:40:00.890Z,11.90
2018-10-09T07:42:30.009Z,11.90
2018-10-09T07:44:59.112Z,12.00
2018-10-09T07:47:28.155Z,12.20
2018-10-09T07:49:57.207Z,12.30
2018-10-09T07:52:26.286Z,12.50
2018-10-09T07:54:55.332Z,12.60
2018-10-09T07:57:24.391Z,12.80
2018-10-09T07:59:53.596Z,13.10
2018-10-09T08:02:22.755Z,13.30
2018-10-09T08:04:52.315Z,13.60
2018-10-09T08:07:21.359Z,14.00
2018-10-09T08:09:50.467Z,14.20
2018-10-09T08:12:19.522Z,14.30
2018-10-09T08:14:48.588Z,14.60
2018-10-09T08:17:17.645Z,14.90
2018-10-09T08:19:47.007Z,15.50
2018-10-09T08:22:16.112Z,16.60
2018-10-09T08:24:45.263Z,17.40
2018-10-09T08:27:14.366Z,18.10
2018-10-09T08:29:43.408Z,18.40
2018-10-09T08:32:12.464Z,18.60
2018-10-09T08:34:41.591Z,19.00
2018-10-09T08:37:10.567Z,19.10
2018-10-09T08:39:39.611Z,19.40
2018-10-09T08:42:08.690Z,19.70
2018-10-09T08:44:37.747Z,19.50
2018-10-09T08:47:06.932Z,19.20
2018-10-09T08:49:35.952Z,19.20
2018-10-09T08:52:05.257Z,19.30
2018-10-09T08:54:34.328Z,19.00
2018-10-09T08:57:03.389Z,19.10
2018-10-09T08:59:32.587Z,19.10
2018-10-09T09:02:01.660Z,19.30
2018-10-09T09:04:30.680Z,19.60
2018-10-09T09:06:59.744Z,19.50
2018-10-09T09:09:28.772Z,19.50
2018-10-09T09:11:57.886Z,19.50
2018-10-09T09:14:26.919Z,19.70
2018-10-09T09:16:55.983Z,19.60
2018-10-09T09:19:25.012Z,19.90
2018-10-09T09:21:54.097Z,20.30
2018-10-09T09:24:23.144Z,21.10
2018-10-09T09:26:52.249Z,21.40
2018-10-09T09:29:21.242Z,21.30
2018-10-09T09:31:50.464Z,21.40
2018-10-09T09:34:20.189Z,21.40
2018-10-09T09:36:49.491Z,20.90
2018-10-09T09:39:18.741Z,21.40
2018-10-09T09:41:48.305Z,21.60
2018-10-09T09:44:17.908Z,22.00
2018-10-09T09:46:47.369Z,21.80
2018-10-09T09:49:16.696Z,22.10
2018-10-09T09:51:46.226Z,22.70
2018-10-09T09:54:15.681Z,23.10
2018-10-09T09:56:44.780Z,23.00
2018-10-09T09:59:13.814Z,22.90
2018-10-09T10:01:43.810Z,23.20
2018-10-09T10:04:13.858Z,23.50
2018-10-09T10:06:43.357Z,23.60
2018-10-09T10:09:12.483Z,23.70
2018-10-09T10:11:41.491Z,23.90
2018-10-09T10:14:10.613Z,23.70
2018-10-09T10:16:39.667Z,23.50
2018-10-09T10:19:08.700Z,24.00
2018-10-09T10:21:37.759Z,23.80
2018-10-09T10:24:06.981Z,23.70
2018-10-09T10:26:36.047Z,23.20
2018-10-09T10:29:05.270Z,22.80
2018-10-09T10:31:34.252Z,23.00
2018-10-09T10:34:03.819Z,23.00
2018-10-09T10:36:32.997Z,23.30
2018-10-09T10:39:02.745Z,23.70
2018-10-09T10:41:31.764Z,24.90
2018-10-09T10:44:00.876Z,25.10
2018-10-09T10:46:35.310Z,24.40
2018-10-09T10:49:05.699Z,24.50
2018-10-09T10:51:35.187Z,24.30
2018-10-09T10:54:04.354Z,24.40
2018-10-09T10:56:34.905Z,24.30
2018-10-09T10:59:04.152Z,24.50
2018-10-09T11:01:33.882Z,24.40
2018-10-09T11:04:03.621Z,25.10
2018-10-09T11:06:32.657Z,24.80
2018-10-09T11:09:01.738Z,24.80
2018-10-09T11:11:30.750Z,25.20
2018-10-09T11:14:00.400Z,25.40
2018-10-09T11:16:29.477Z,25.70
2018-10-09T11:18:59.160Z,25.80
2018-10-09T11:21:28.264Z,25.90
2018-10-09T11:23:57.354Z,26.00
2018-10-09T11:26:27.571Z,26.50
2018-10-09T11:28:56.622Z,26.40
2018-10-09T11:31:26.067Z,27.00
2018-10-09T11:33:55.108Z,26.90
2018-10-09T11:36:24.147Z,26.80
2018-10-09T11:38:53.579Z,26.30
2018-10-09T11:41:23.008Z,25.30
2018-10-09T11:43:52.115Z,26.00
2018-10-09T11:46:21.163Z,26.60
2018-10-09T11:48:50.199Z,26.50
2018-10-09T11:51:19.304Z,25.80
2018-10-09T11:53:48.490Z,26.40
2018-10-09T11:56:17.603Z,26.60
2018-10-09T11:58:46.926Z,27.20
2018-10-09T12:01:15.955Z,26.50
2018-10-09T12:03:45.105Z,27.10
2018-10-09T12:06:14.301Z,26.90
2018-10-09T12:08:43.439Z,26.20
2018-10-09T12:11:12.471Z,26.90
2018-10-09T12:13:41.532Z,26.80
2018-10-09T12:16:10.571Z,26.60
2018-10-09T12:18:39.623Z,26.10
2018-10-09T12:21:08.787Z,26.30
2018-10-09T12:23:38.187Z,25.90
2018-10-09T12:26:07.504Z,25.80
2018-10-09T12:28:36.579Z,25.50
2018-10-09T12:31:05.817Z,25.30
2018-10-09T12:33:35.561Z,25.60
2018-10-09T12:36:06.064Z,25.90
2018-10-09T12:38:35.111Z,26.20
2018-10-09T12:41:04.824Z,26.10
2018-10-09T12:43:33.855Z,25.80
2018-10-09T12:46:03.053Z,25.70
2018-10-09T12:48:32.156Z,25.60
2018-10-09T12:51:01.217Z,25.30
2018-10-09T12:53:31.615Z,24.80
2018-10-09T12:56:00.697Z,25.10
2018-10-09T12:58:29.770Z,24.60
2018-10-09T13:00:58.805Z,24.10
2018-10-09T13:03:28.003Z,24.30
2018-10-09T13:05:57.234Z,24.20
2018-10-09T13:08:26.287Z,24.50
2018-10-09T13:10:55.470Z,24.70
2018-10-09T13:13:24.612Z,24.50
2018-10-09T13:15:53.819Z,24.60
2018-10-09T13:18:22.847Z,24.80
2018-10-09T13:20:52.255Z,24.40
2018-10-09T13:23:21.191Z,24.70
2018-10-09T13:25:50.309Z,23.30
2018-10-09T13:28:19.495Z,23.00
2018-10-09T13:30:48.665Z,22.80
2018-10-09T13:33:17.725Z,22.40
2018-10-09T13:35:46.848Z,22.20
2018-10-09T13:38:15.973Z,22.10
2018-10-09T13:40:44.963Z,22.20
2018-10-09T13:43:14.034Z,22.30
2018-10-09T13:45:43.193Z,22.20
2018-10-09T13:48:12.602Z,22.10
2018-10-09T13:50:41.732Z,22.00
2018-10-09T13:53:10.798Z,21.80
2018-10-09T13:55:39.868Z,21.60
2018-10-09T13:58:08.936Z,21.50
2018-10-09T14:00:38.161Z,21.60
2018-10-09T14:03:07.765Z,21.70
2018-10-09T14:05:36.864Z,21.60
2018-10-09T14:08:06.857Z,21.60
2018-10-09T14:10:35.928Z,21.50
2018-10-09T14:13:05.091Z,21.40
2018-10-09T14:15:34.806Z,21.50
2018-10-09T14:18:04.350Z,21.40
2018-10-09T14:20:33.623Z,21.10
2018-10-09T14:23:02.753Z,20.90
2018-10-09T14:25:32.190Z,21.00
2018-10-09T14:28:01.461Z,21.20
2018-10-09T14:30:30.698Z,21.10
2018-10-09T14:32:59.918Z,21.00
2018-10-09T14:35:28.976Z,20.90
2018-10-09T14:37:57.995Z,20.80
2018-10-09T14:40:27.100Z,20.70
2018-10-09T14:42:56.119Z,20.60
2018-10-09T14:45:25.143Z,20.60
2018-10-09T14:47:54.167Z,20.60
2018-10-09T14:50:23.223Z,20.70
2018-10-09T14:52:52.415Z,20.60
2018-10-09T14:55:21.457Z,20.50
2018-10-09T14:57:50.600Z,20.50
2018-10-09T15:00:19.909Z,20.50
2018-10-09T15:02:49.106Z,20.40
2018-10-09T15:05:18.214Z,20.40
2018-10-09T15:07:48.470Z,20.30
2018-10-09T15:10:17.683Z,20.20
2018-10-09T15:12:46.800Z,20.30
2018-10-09T15:15:15.948Z,20.10
2018-10-09T15:17:45.092Z,20.20
2018-10-09T15:20:14.166Z,20.20
2018-10-09T15:22:44.196Z,20.20
2018-10-09T15:25:13.988Z,20.20
2018-10-09T15:27:43.453Z,20.30
2018-10-09T15:30:12.735Z,20.20
2018-10-09T15:32:41.963Z,20.10
2018-10-09T15:35:12.092Z,20.10
2018-10-09T15:37:41.305Z,20.10
2018-10-09T15:40:11.783Z,20.20
2018-10-09T15:42:41.152Z,20.20
2018-10-09T15:45:10.479Z,20.20
2018-10-09T15:47:39.652Z,20.20
2018-10-09T15:50:08.751Z,20.20
2018-10-09T15:52:37.886Z,20.20
2018-10-09T15:55:07.652Z,20.10
2018-10-09T15:57:37.776Z,20.10
2018-10-09T16:00:07.000Z,20.10
2018-10-09T16:02:36.199Z,20.00
2018-10-09T16:05:05.324Z,19.90
2018-10-09T16:07:34.417Z,19.80
2018-10-09T16:10:03.566Z,19.70
2018-10-09T16:12:32.685Z,19.50
2018-10-09T16:15:02.473Z,19.40
2018-10-09T16:17:31.555Z,19.30
2018-10-09T16:20:00.785Z,19.30
2018-10-09T16:22:29.975Z,19.20
2018-10-09T16:25:01.380Z,19.10
2018-10-09T16:27:30.589Z,19.00
2018-10-09T16:29:59.690Z,18.90
2018-10-09T16:32:28.874Z,18.90
2018-10-09T16:34:57.888Z,18.80
2018-10-09T16:37:27.044Z,18.70
2018-10-09T16:39:56.099Z,18.50
2018-10-09T16:42:25.194Z,18.40
2018-10-09T16:44:54.409Z,18.30
2018-10-09T16:47:23.548Z,18.20
2018-10-09T16:49:52.596Z,18.10
2018-10-09T16:52:22.071Z,18.00
2018-10-09T16:54:51.108Z,17.80
2018-10-09T16:57:20.227Z,17.70
2018-10-09T16:59:49.252Z,17.50
2018-10-09T17:02:18.296Z,17.40
2018-10-09T17:04:49.488Z,17.30
2018-10-09T17:07:19.006Z,17.10
2018-10-09T17:09:48.106Z,17.10
2018-10-09T17:12:17.247Z,17.00
2018-10-09T17:14:46.968Z,16.90
2018-10-09T17:17:16.180Z,16.80
2018-10-09T17:19:45.599Z,16.70
2018-10-09T17:22:14.780Z,16.60
2018-10-09T17:24:43.905Z,16.50
2018-10-09T17:27:13.374Z,16.40
2018-10-09T17:29:42.398Z,16.40
2018-10-09T17:32:11.459Z,16.40
2018-10-09T17:34:40.487Z,16.30
2018-10-09T17:37:09.556Z,16.20
2018-10-09T17:39:38.602Z,16.10
2018-10-09T17:42:07.676Z,16.10
2018-10-09T17:44:36.641Z,16.10
2018-10-09T17:47:08.771Z,16.00
2018-10-09T17:49:39.272Z,15.90
2018-10-09T17:52:08.807Z,15.80
2018-10-09T17:54:37.827Z,15.70
2018-10-09T17:57:06.955Z,15.70
2018-10-09T17:59:36.037Z,15.60
2018-10-09T18:02:05.088Z,15.60
2018-10-09T18:04:34.289Z,15.50
2018-10-09T18:07:03.427Z,15.40
2018-10-09T18:09:32.428Z,15.30
2018-10-09T18:12:01.571Z,15.10
2018-10-09T18:14:30.629Z,15.00
2018-10-09T18:16:59.760Z,15.00
2018-10-09T18:19:28.796Z,14.90
2018-10-09T18:21:57.836Z,14.80
2018-10-09T18:24:26.848Z,14.80
2018-10-09T18:26:55.902Z,14.60
2018-10-09T18:29:24.901Z,14.60
2018-10-09T18:31:53.999Z,14.60
2018-10-09T18:34:23.046Z,14.50
2018-10-09T18:36:52.105Z,14.40
2018-10-09T18:39:21.133Z,14.30
2018-10-09T18:41:50.294Z,14.30
2018-10-09T18:44:19.183Z,14.30
2018-10-09T18:46:48.231Z,14.20
2018-10-09T18:49:17.317Z,14.20
2018-10-09T18:51:46.357Z,14.10
2018-10-09T18:54:15.462Z,14.00
2018-10-09T18:56:44.487Z,14.00
2018-10-09T18:59:13.567Z,13.90
2018-10-09T19:01:42.609Z,13.90
2018-10-09T19:04:11.743Z,13.90
2018-10-09T19:06:40.742Z,14.00
2018-10-09T19:09:11.319Z,14.00
2018-10-09T19:11:40.328Z,14.00
2018-10-09T19:14:09.339Z,14.00
2018-10-09T19:16:38.379Z,13.90
2018-10-09T19:19:07.433Z,13.90
2018-10-09T19:21:36.451Z,13.70
2018-10-09T19:24:05.497Z,13.70
2018-10-09T19:26:34.543Z,13.60
2018-10-09T19:29:03.584Z,13.60
2018-10-09T19:31:32.608Z,13.70
2018-10-09T19:34:01.701Z,13.60
2018-10-09T19:36:30.686Z,13.60
2018-10-09T19:38:59.811Z,13.50
2018-10-09T19:41:28.885Z,13.50
2018-10-09T19:43:58.036Z,13.50
2018-10-09T19:46:27.069Z,13.50
2018-10-09T19:48:56.103Z,13.40
2018-10-09T19:51:25.220Z,13.40
2018-10-09T19:53:54.216Z,13.30
2018-10-09T19:56:23.275Z,13.20
2018-10-09T19:58:52.411Z,13.00
2018-10-09T20:01:21.581Z,13.00
2018-10-09T20:03:50.762Z,12.90
2018-10-09T20:06:19.815Z,13.00
2018-10-09T20:08:48.933Z,13.00
2018-10-09T20:11:18.008Z,13.00
2018-10-09T20:13:47.086Z,12.90
2018-10-09T20:16:21.873Z,12.90
2018-10-09T20:18:56.435Z,12.90
2018-10-09T20:21:30.908Z,12.90
2018-10-09T20:24:06.093Z,12.90
2018-10-09T20:26:40.596Z,12.90
2018-10-09T20:29:15.287Z,12.80
2018-10-09T20:31:50.040Z,12.90
2018-10-09T20:34:24.702Z,12.80
2018-10-09T20:36:59.647Z,12.80
2018-10-09T20:39:34.380Z,12.80
2018-10-09T20:42:09.035Z,12.80
2018-10-09T20:44:43.795Z,12.80
2018-10-09T20:47:22.516Z,12.80
2018-10-09T20:49:57.088Z,12.80
2018-10-09T20:52:33.689Z,12.80
2018-10-09T20:55:08.555Z,12.80
2018-10-09T20:57:43.139Z,12.80
2018-10-09T21:00:17.839Z,12.80
2018-10-09T21:02:52.423Z,12.70
2018-10-09T21:05:26.926Z,12.70
2018-10-09T21:08:01.427Z,12.80
2018-10-09T21:10:36.056Z,12.80
2018-10-09T21:13:10.722Z,12.70
2018-10-09T21:15:45.243Z,12.70
2018-10-09T21:18:20.358Z,12.60
2018-10-09T21:20:55.062Z,12.60
2018-10-09T21:23:29.827Z,12.60
2018-10-09T21:26:04.412Z,12.60
2018-10-09T21:28:39.036Z,12.60
2018-10-09T21:31:13.743Z,12.50
2018-10-09T21:33:48.403Z,12.50
2018-10-09T21:36:23.012Z,12.40
2018-10-09T21:38:57.714Z,12.30
2018-10-09T21:41:32.325Z,12.30
2018-10-09T21:44:07.175Z,12.20
2018-10-09T21:46:41.824Z,12.30
2018-10-09T21:49:16.555Z,12.30
2018-10-09T21:51:51.180Z,12.20
2018-10-09T21:54:25.710Z,12.10
2018-10-09T21:57:00.619Z,12.10
2018-10-09T21:59:35.244Z,12.10
2018-10-09T22:02:09.715Z,12.10
2018-10-09T22:04:44.547Z,12.10
2018-10-09T22:07:19.134Z,12.10
2018-10-09T22:09:53.971Z,12.00
2018-10-09T22:12:29.632Z,12.00
2018-10-09T22:15:04.768Z,11.90
2018-10-09T22:17:39.488Z,11.70
2018-10-09T22:20:14.166Z,11.60
2018-10-09T22:22:48.637Z,11.50
2018-10-09T22:25:23.248Z,11.50
2018-10-09T22:27:57.788Z,11.60
2018-10-09T22:30:32.295Z,11.60
2018-10-09T22:33:07.636Z,11.60
2018-10-09T22:35:42.260Z,11.70
2018-10-09T22:38:16.936Z,11.60
2018-10-09T22:40:51.415Z,11.60
2018-10-09T22:43:25.912Z,11.80
2018-10-09T22:46:00.647Z,11.80
2018-10-09T22:48:35.072Z,11.70
2018-10-09T22:51:09.668Z,11.70
2018-10-09T22:53:44.304Z,11.60
2018-10-09T22:56:19.062Z,11.50
2018-10-09T22:58:53.679Z,11.70
2018-10-09T23:01:28.321Z,11.80
2018-10-09T23:04:03.006Z,11.80
2018-10-09T23:06:37.699Z,11.80
2018-10-09T23:09:13.419Z,11.60
2018-10-09T23:11:48.003Z,11.80
2018-10-09T23:14:22.767Z,11.80
2018-10-09T23:16:57.471Z,11.80
2018-10-09T23:19:32.063Z,11.80
2018-10-09T23:22:06.784Z,11.70
2018-10-09T23:24:41.369Z,11.70
2018-10-09T23:27:16.082Z,11.60
2018-10-09T23:29:50.610Z,11.50
2018-10-09T23:32:25.358Z,11.60
2018-10-09T23:34:59.869Z,11.70
2018-10-09T23:37:34.489Z,11.70
2018-10-09T23:40:09.070Z,11.70
2018-10-09T23:42:43.832Z,11.70
2018-10-09T23:45:18.529Z,11.70
2018-10-09T23:47:57.232Z,11.50
2018-10-09T23:50:31.854Z,11.50
2018-10-09T23:53:06.656Z,11.50
2018-10-09T23:55:41.268Z,11.40
2018-10-09T23:58:15.832Z,11.40
